• Join FlightAware (Why Join?)
  • Login
  • US Flag 
01:28AM EDT


 

Airport Tracker/Info


-or-


 

Live Flight TrackerFlight Track Log ✈ N97FG ✈ 05-May-2013 ✈ KJFK - KPTK

Flight Track Log - Related Links

Times and Time Zones

All times are in EDT time to prevent confusion due to time zone crossing. See the N97FG flight status page for this flight to view local times or setup timezone preferences in your user account.

Time Position Orientation Groundspeed Altitude Reporting Facility
EDT Latitude Longitude Course Direction KTS MPH feet Rate Location/Type
06:35PM 40.6333 -73.7000 331° Northwest 202 232 4,800  Level New York TRACON
06:36PM 40.6500 -73.6167 75° East 279 321 7,400 2,940 Climbing New York TRACON
06:37PM 40.7167 -73.5667 30° Northeast 291 335 10,700 2,580 Climbing New York TRACON
06:38PM 40.8167 -73.5333 14° North 344 396 12,700 2,160 Climbing New York TRACON
06:39PM 40.9000 -73.5667 343° North 363 418 15,100 2,100 Climbing New York TRACON
06:40PM 41.1257 -74.1442 331° Northwest  Level FlightAware Approximate
06:40PM 40.9667 -73.6667 311° West 369 425 17,000  Level New York TRACON
06:41PM 41.0333 -73.7833 307° West 418 481 17,000  Level New York TRACON
06:42PM 41.1333 -73.9167 315° West 446 513 17,000  Level New York TRACON
06:43PM 41.2139 -74.0533 308° West 461 531 17,100 1,380 Climbing New York Center
06:45PM 41.3753 -74.3017 311° West 435 501 21,600 2,160 Climbing New York Center
06:46PM 41.4403 -74.4267 305° West 421 484 23,600 1,980 Climbing New York Center
06:47PM 41.4986 -74.5575 301° West 416 479 25,600 1,860 Climbing New York Center
06:48PM 41.5447 -74.6792 297° West 410 472 27,500 1,740 Climbing New York Center
06:49PM 41.6028 -74.8072 301° West 410 472 29,100 1,500 Climbing New York Center
06:51PM 41.6725 -74.9949 304° West  Level FlightAware Approximate
06:52PM 41.7758 -75.2128 300° West 415 478 33,600  Level New York Center
06:53PM 41.8350 -75.3531 300° West 420 483 35,100 1,380 Climbing New York Center
06:54PM 41.8922 -75.4881 300° West 420 483 36,400 1,140 Climbing New York Center
06:56PM 41.9833 -75.7167 298° West 430 495 38,200 1,020 Climbing Toronto Center
06:57PM 42.0500 -75.8667 301° West 430 495 39,200 960 Climbing Toronto Center
06:58PM 42.0322 -75.8543 300° West  Level FlightAware Approximate
06:58PM 42.1000 -76.0000 297° West 430 495 40,200  Level Toronto Center
06:59PM 42.1667 -76.1333 304° West 420 483 41,200 840 Climbing Toronto Center
06:59PM 42.1908 -76.2417 287° West 424 488 41,600 960 Climbing Cleveland Center
07:00PM 42.2425 -76.4008 294° West 429 494 42,800 660 Climbing Cleveland Center
07:01PM 42.2872 -76.5411 293° West 424 488 43,000 60 Climbing Cleveland Center
07:03PM 42.3828 -76.8442 293° West 435 501 43,000  Level Cleveland Center
07:04PM 42.4000 -76.8833 301° West 450 518 43,000  Level Toronto Center
07:04PM 42.4317 -76.9989 290° West 442 509 43,000  Level Cleveland Center
07:05PM 42.4803 -77.1567 293° West 447 514 43,000  Level Cleveland Center
07:06PM 42.5286 -77.3119 293° West 447 514 43,000  Level Cleveland Center
07:07PM 42.5653 -77.4342 292° West 447 514 43,000  Level Cleveland Center
07:08PM 42.6222 -77.6147 293° West 455 524 43,000 -60 Level Cleveland Center
07:09PM 42.6678 -77.7706 292° West 455 524 42,900  Descending Cleveland Center
07:10PM 42.7172 -77.9267 293° West 455 524 43,000  Climbing Cleveland Center
07:11PM 42.7622 -78.0775 292° West 449 517 43,000  Level Cleveland Center
07:12PM 42.8094 -78.2314 293° West 444 511 43,000  Level Cleveland Center
07:13PM 42.8542 -78.3856 292° West 444 511 43,000  Level Cleveland Center
07:14PM 42.8986 -78.5428 291° West 444 511 43,000  Level Cleveland Center
07:15PM 42.9328 -78.7031 286° West 449 517 43,000  Level Cleveland Center
07:16PM 42.9417 -78.8758 274° West 449 517 43,000  Level Cleveland Center
07:17PM 42.9333 -78.9500 261° West 450 518 43,000 -120 Level Toronto Center
07:18PM 42.9500 -79.1167 278° West 450 518 42,900 -1,140 Descending Toronto Center
07:19PM 42.9500 -79.2667 270° West 440 506 40,800 -2,340 Descending Toronto Center
07:20PM 42.9667 -79.4333 278° West 430 495 38,300 -2,460 Descending Toronto Center
07:21PM 42.9667 -79.5833 270° West 430 495 35,900 -2,100 Descending Toronto Center
07:22PM 42.9833 -79.7667 277° West 450 518 34,100 -1,620 Descending Toronto Center
07:23PM 42.9833 -79.9500 270° West 450 518 32,700 -1,560 Descending Toronto Center
07:24PM 42.9833 -80.1167 270° West 450 518 31,000 -1,800 Descending Toronto Center
07:25PM 43.0000 -80.3000 277° West 450 518 29,100 -1,860 Descending Toronto Center
07:26PM 43.0000 -80.4500 270° West 450 518 27,300 -1,800 Descending Toronto Center
07:27PM 43.0167 -80.6167 278° West 440 506 25,500 -1,680 Descending Toronto Center
07:28PM 43.0167 -80.7667 270° West 440 506 24,000 -720 Descending Toronto Center
07:29PM 43.0167 -80.9500 270° West 450 518 24,100 -780 Climbing Toronto Center
07:30PM 43.0167 -81.1333 270° West 450 518 22,500 -1,920 Descending Toronto Center
07:31PM 42.9833 -81.3000 255° West 460 529 20,300 -2,100 Descending Toronto Center
07:32PM 42.9500 -81.4500 253° West 450 518 18,300 -2,040 Descending Toronto Center
07:33PM 42.9167 -81.6167 255° West 430 495 16,300 -2,100 Descending Toronto Center
07:34PM 42.8667 -81.7667 246° West 450 518 14,200 -2,100 Descending Toronto Center
07:35PM 42.8167 -81.9333 248° West 430 495 12,100 -1,140 Descending Toronto Center
07:36PM 42.7833 -82.0667 251° West 410 472 12,000 -360 Descending Toronto Center
07:37PM 42.7736 -82.2322 265° West 420 483 11,400 -720 Descending Cleveland Center
07:39PM 42.7586 -82.5175 266° West 393 452 10,000 -540 Descending Cleveland Center
07:40PM 42.7544 -82.6389 267° West 337 388 10,000 -900 Level Cleveland Center
07:41PM 42.7503 -82.7489 267° West 318 366 8,200 -1,800 Descending Cleveland Center
07:42PM 42.7417 -82.8817 265° West 279 321 6,100 -1,080 Descending Cleveland Center
07:43PM 42.7353 -82.9889 265° West 290 334 6,000 -180 Descending Cleveland Center
07:44PM 42.7350 -83.0933 270° West 283 326 5,800 -900 Descending Cleveland Center
07:45PM 42.7367 -83.2064 271° West 277 319 4,300 -1,020 Descending Cleveland Center
07:46PM 42.7411 -83.2803 275° West 283 326 4,000 -300 Descending Cleveland Center
07:46PM 42.7406 -83.3142 269° West 234 269 4,000 -1,080 Level Cleveland Center
07:47PM 42.7297 -83.4183 262° West 237 273 2,500 -720 Descending Cleveland Center
07:48PM 42.7133 -83.4853 252° West 156 180 2,400 -300 Descending Cleveland Center
07:49PM 42.6819 -83.4867 182° South 137 158 2,000 -540 Descending Cleveland Center
07:51PM 42.6656 -83.4205 251° West  Level Estimated
07:58PM 42.6656 -83.4205 251° West  Level Estimated
07:59PM 42.6656 -83.4205 251° West  Level Estimated